< < Back
Terminal Aerodrome Forecast


Current Version              Previous Versions:   1  2  3  4  5  6  7  8  9  

Terminal Aerodrome Forecast

595
FTUS42 KCAE 261733
TAFCAE
TAF
KCAE 261733Z 2618/2718 20007KT P6SM SCT070
     FM262200 16006KT P6SM SCT060
     FM270600 VRB04KT P6SM SCT070=

Latest METAR

312
SAUS80 KWBC 262000
MTRCAE
METAR KCAE 261956Z 17005KT 10SM BKN100 31/16 A3011 RMK AO2 SLP193
T03110156


USA.gov is the U.S. government's official web portal to all federal, state and local government web resources and services.